Time;durP1;ratioP1;P1;durP2;ratioP2;P2;SDS_P1;SDS_P2;PMS_P1;PMS_P2;Temp;Humidity;BMP_temperature;BMP_pressure;BME280_temperature;BME280_humidity;BME280_pressure;Samples;Min_cycle;Max_cycle;Signal;HPM_P1;HPM_P2
2022/02/13 00:00:51;;;;;;;12.45;4.35;;;3.70;74.40;;;;;;9178543;19;20022;-63
2022/02/13 00:03:56;;;;;;;9.95;4.43;;;3.70;74.40;;;;;;9178089;19;20033;-63
2022/02/13 00:07:01;;;;;;;12.05;4.63;;;3.70;74.40;;;;;;9180621;19;20022;-61
2022/02/13 00:10:09;;;;;;;18.63;5.13;;;3.70;74.40;;;;;;9179923;19;20018;-66
2022/02/13 00:13:16;;;;;;;10.77;4.60;;;3.70;74.40;;;;;;9178103;19;20468;-64
2022/02/13 00:16:22;;;;;;;11.60;4.45;;;3.70;74.40;;;;;;9176628;19;20505;-65
2022/02/13 00:19:27;;;;;;;13.00;4.78;;;3.60;74.40;;;;;;9176472;19;20022;-66
2022/02/13 00:22:32;;;;;;;13.98;5.13;;;3.60;74.40;;;;;;9180370;19;20018;-64
2022/02/13 00:25:37;;;;;;;10.75;4.82;;;3.60;74.50;;;;;;9178709;19;20018;-64
2022/02/13 00:28:45;;;;;;;12.00;4.72;;;3.60;74.50;;;;;;9177369;19;20605;-63
2022/02/13 00:31:51;;;;;;;15.10;5.45;;;3.60;74.50;;;;;;9178356;19;20022;-63
2022/02/13 00:34:56;;;;;;;10.73;4.57;;;3.60;74.50;;;;;;9180724;19;20015;-63
2022/02/13 00:38:01;;;;;;;17.27;5.50;;;3.50;74.50;;;;;;9175677;19;20014;-61
2022/02/13 00:41:06;;;;;;;19.25;5.28;;;3.50;74.50;;;;;;9175902;19;20024;-65
2022/02/13 00:44:14;;;;;;;12.10;5.35;;;3.50;74.60;;;;;;9178132;19;20018;-63
2022/02/13 00:47:19;;;;;;;14.02;5.60;;;3.50;74.60;;;;;;9175734;19;20015;-61
2022/02/13 00:50:24;;;;;;;14.40;5.57;;;3.50;74.60;;;;;;9178594;19;20773;-63
2022/02/13 00:53:29;;;;;;;10.43;5.20;;;3.40;74.60;;;;;;9178606;19;20551;-64
2022/02/13 00:56:34;;;;;;;17.27;5.18;;;3.40;74.60;;;;;;9174341;19;20015;-63
2022/02/13 00:59:42;;;;;;;17.50;5.30;;;3.40;74.60;;;;;;9175292;19;20034;-63
2022/02/13 01:02:48;;;;;;;16.10;5.72;;;3.40;74.60;;;;;;9176071;19;20018;-64
2022/02/13 01:05:53;;;;;;;18.38;5.78;;;3.40;74.60;;;;;;9177765;19;20018;-65
2022/02/13 01:08:58;;;;;;;20.80;6.38;;;3.30;74.60;;;;;;9178152;19;20070;-63
2022/02/13 01:12:03;;;;;;;13.88;4.90;;;3.40;74.80;;;;;;9175208;19;20026;-62
2022/02/13 01:15:11;;;;;;;9.57;4.80;;;3.30;74.70;;;;;;9175692;19;20352;-63
2022/02/13 01:18:16;;;;;;;12.90;5.68;;;3.30;74.80;;;;;;9172026;19;20029;-63
2022/02/13 01:21:22;;;;;;;13.50;5.90;;;3.30;74.70;;;;;;9178458;19;20026;-63
2022/02/13 01:24:26;;;;;;;14.02;5.63;;;3.30;74.80;;;;;;9176624;19;20018;-63
2022/02/13 01:27:31;;;;;;;10.13;4.68;;;3.20;74.70;;;;;;9175637;19;20394;-64
2022/02/13 01:30:41;;;;;;;18.55;5.93;;;3.20;74.70;;;;;;9175995;19;20022;-64
2022/02/13 01:33:47;;;;;;;13.35;5.80;;;3.20;74.70;;;;;;9176325;19;20014;-61
2022/02/13 01:36:52;;;;;;;11.00;5.30;;;3.20;74.80;;;;;;9176677;19;20377;-63
2022/02/13 01:39:57;;;;;;;15.85;6.22;;;3.20;74.80;;;;;;9175279;19;20388;-64
2022/02/13 01:43:02;;;;;;;17.20;5.80;;;3.10;74.80;;;;;;9172213;19;20010;-62
2022/02/13 01:46:10;;;;;;;14.85;5.53;;;3.20;74.90;;;;;;9175616;19;20016;-63
2022/02/13 01:49:15;;;;;;;13.15;5.07;;;3.10;74.80;;;;;;9177217;19;20022;-62
2022/02/13 01:52:20;;;;;;;14.00;5.43;;;3.10;74.90;;;;;;9175483;19;20022;-64
2022/02/13 01:55:26;;;;;;;13.77;5.32;;;3.10;74.90;;;;;;9176373;19;20402;-62
2022/02/13 01:58:32;;;;;;;15.32;5.68;;;3.00;74.80;;;;;;9173958;19;20025;-63
2022/02/13 02:01:40;;;;;;;14.75;5.53;;;3.00;74.90;;;;;;9172201;19;20066;-62
2022/02/13 02:04:45;;;;;;;11.57;6.35;;;3.00;74.90;;;;;;9176098;19;20353;-62
2022/02/13 02:07:50;;;;;;;13.65;5.72;;;3.00;74.90;;;;;;9174146;19;20018;-65
2022/02/13 02:10:55;;;;;;;12.68;6.20;;;3.00;74.90;;;;;;9174817;19;20482;-62
2022/02/13 02:14:01;;;;;;;15.73;5.65;;;2.90;74.90;;;;;;9173186;19;20010;-61
2022/02/13 02:17:09;;;;;;;17.35;5.70;;;2.90;75.00;;;;;;9172158;19;20014;-65
2022/02/13 02:20:14;;;;;;;11.30;4.95;;;2.90;75.00;;;;;;9176465;19;20019;-64
2022/02/13 02:23:22;;;;;;;17.38;5.40;;;2.90;75.00;;;;;;9176402;19;20022;-62
2022/02/13 02:26:28;;;;;;;16.08;5.90;;;2.90;75.00;;;;;;9172306;19;20022;-62
2022/02/13 02:29:33;;;;;;;17.20;6.40;;;2.90;75.00;;;;;;9173933;19;20018;-61
2022/02/13 02:32:38;;;;;;;14.70;5.78;;;2.80;74.90;;;;;;9172661;19;20022;-62
2022/02/13 02:35:43;;;;;;;13.65;5.53;;;2.90;75.00;;;;;;9175000;19;20014;-62
2022/02/13 02:38:51;;;;;;;14.80;5.22;;;2.80;75.00;;;;;;9174159;19;20818;-61
2022/02/13 02:41:56;;;;;;;18.30;5.40;;;2.80;75.00;;;;;;9172266;19;20018;-62
2022/02/13 02:45:01;;;;;;;16.92;7.20;;;2.80;75.00;;;;;;9174908;19;20010;-62
2022/02/13 02:48:08;;;;;;;13.43;5.50;;;2.80;75.00;;;;;;9174971;19;20007;-62
2022/02/13 02:51:13;;;;;;;12.65;6.38;;;2.80;75.00;;;;;;9175248;19;20499;-62
2022/02/13 02:54:21;;;;;;;15.10;5.68;;;2.80;75.00;;;;;;9173015;19;20023;-61
2022/02/13 02:57:26;;;;;;;13.32;5.30;;;2.80;75.10;;;;;;9174485;19;20022;-63
2022/02/13 03:00:32;;;;;;;8.98;5.22;;;2.80;75.10;;;;;;9172305;19;20341;-63
2022/02/13 03:03:37;;;;;;;17.85;6.10;;;2.70;75.10;;;;;;9175526;19;20943;-63
2022/02/13 03:06:43;;;;;;;15.27;5.68;;;2.80;75.10;;;;;;9171332;19;20078;-62
2022/02/13 03:09:51;;;;;;;19.13;6.22;;;2.70;75.10;;;;;;9172107;19;20025;-63
2022/02/13 03:12:56;;;;;;;16.67;5.88;;;2.70;75.10;;;;;;9173278;19;20010;-63
2022/02/13 03:16:01;;;;;;;14.40;5.63;;;2.70;75.20;;;;;;9174775;19;20021;-63
2022/02/13 03:19:06;;;;;;;16.38;5.88;;;2.80;75.20;;;;;;9173713;19;20014;-63
2022/02/13 03:22:11;;;;;;;11.90;5.00;;;2.70;75.10;;;;;;9179303;19;20025;-66
2022/02/13 03:25:19;;;;;;;15.60;5.57;;;2.70;75.10;;;;;;9179282;19;20037;-63
2022/02/13 03:28:24;;;;;;;12.38;5.60;;;2.70;75.10;;;;;;9180671;19;20019;-62
2022/02/13 03:31:29;;;;;;;11.95;5.18;;;2.70;75.10;;;;;;9183194;19;20337;-62
2022/02/13 03:34:35;;;;;;;14.38;5.57;;;2.70;75.10;;;;;;9184112;19;20015;-62
2022/02/13 03:37:42;;;;;;;11.98;5.68;;;2.70;75.20;;;;;;9178652;19;20814;-62
2022/02/13 03:40:51;;;;;;;11.73;5.60;;;2.70;75.20;;;;;;9180749;19;20022;-63
2022/02/13 03:43:56;;;;;;;14.77;5.38;;;2.70;75.20;;;;;;9180443;19;20497;-62
2022/02/13 03:47:01;;;;;;;16.02;5.55;;;2.70;75.20;;;;;;9183809;19;20018;-63
2022/02/13 03:50:07;;;;;;;11.63;5.30;;;2.70;75.20;;;;;;9181881;19;20348;-66
2022/02/13 03:53:12;;;;;;;18.02;6.28;;;2.70;75.20;;;;;;9178493;19;20026;-63
2022/02/13 03:56:19;;;;;;;12.88;4.95;;;2.70;75.20;;;;;;9180209;19;20010;-62
2022/02/13 03:59:24;;;;;;;9.93;5.28;;;2.70;75.20;;;;;;9178658;19;20018;-62
2022/02/13 04:02:29;;;;;;;13.82;5.45;;;2.70;75.20;;;;;;9183562;19;20018;-63
2022/02/13 04:05:34;;;;;;;16.55;5.45;;;2.70;75.20;;;;;;9181673;19;20018;-62
2022/02/13 04:08:39;;;;;;;15.65;5.13;;;2.70;75.20;;;;;;9178965;19;20474;-63
2022/02/13 04:11:47;;;;;;;9.43;5.10;;;2.70;75.30;;;;;;9178004;19;20044;-61
2022/02/13 04:14:58;;;;;;;;;;;2.70;75.20;;;;;;9181022;19;20940;-61
2022/02/13 04:18:03;;;;;;;11.57;4.80;;;2.70;75.20;;;;;;9177092;19;19929;-62
2022/02/13 04:21:08;;;;;;;14.45;5.18;;;2.70;75.30;;;;;;9179042;19;20074;-63
2022/02/13 04:24:13;;;;;;;15.60;4.85;;;2.70;75.20;;;;;;9179178;19;20041;-64
2022/02/13 04:27:21;;;;;;;13.38;4.93;;;2.70;75.80;;;;;;9179065;19;20491;-63
2022/02/13 04:30:26;;;;;;;7.90;4.00;;;2.60;75.20;;;;;;9179584;19;20019;-63
2022/02/13 04:33:31;;;;;;;18.13;5.50;;;2.70;75.30;;;;;;9180429;19;20019;-63
2022/02/13 04:36:36;;;;;;;9.07;4.57;;;2.60;75.20;;;;;;9177220;19;20026;-64
2022/02/13 04:39:43;;;;;;;15.93;5.45;;;2.60;75.20;;;;;;9176053;19;20018;-64
2022/02/13 04:42:50;;;;;;;10.70;4.93;;;2.60;75.20;;;;;;9179127;19;20014;-62
2022/02/13 04:45:55;;;;;;;10.93;4.80;;;2.60;75.20;;;;;;9179158;19;20029;-67
2022/02/13 04:49:02;;;;;;;12.00;4.93;;;2.60;75.20;;;;;;9177978;19;20017;-63
2022/02/13 04:52:08;;;;;;;10.27;4.57;;;2.70;75.30;;;;;;9177315;19;20051;-63
2022/02/13 04:55:13;;;;;;;14.52;5.68;;;2.60;75.20;;;;;;9177206;19;20052;-63
2022/02/13 04:58:21;;;;;;;11.23;5.05;;;2.60;75.20;;;;;;9179141;19;20029;-63
2022/02/13 05:01:26;;;;;;;9.65;4.55;;;2.60;75.20;;;;;;9176991;19;20816;-63
2022/02/13 05:04:31;;;;;;;11.93;4.97;;;2.60;75.20;;;;;;9179300;19;20022;-62
2022/02/13 05:07:36;;;;;;;12.25;5.35;;;2.60;75.20;;;;;;9176490;19;20033;-62
2022/02/13 05:10:41;;;;;;;12.80;4.60;;;2.60;75.20;;;;;;9176783;19;20025;-62
2022/02/13 05:13:49;;;;;;;11.10;5.03;;;2.60;75.20;;;;;;9177284;19;20029;-64
2022/02/13 05:16:54;;;;;;;11.77;4.80;;;2.60;75.20;;;;;;9173766;19;20483;-63
2022/02/13 05:19:59;;;;;;;10.25;4.70;;;2.60;75.20;;;;;;9177523;19;20023;-62
2022/02/13 05:23:04;;;;;;;11.27;4.70;;;2.60;75.30;;;;;;9176301;19;20026;-62
2022/02/13 05:26:09;;;;;;;9.70;4.88;;;2.50;75.30;;;;;;9174910;19;20352;-61
2022/02/13 05:29:17;;;;;;;10.82;4.43;;;2.50;75.20;;;;;;9177336;19;20389;-66
2022/02/13 05:32:22;;;;;;;8.88;4.90;;;2.50;75.30;;;;;;9178663;19;20783;-62
2022/02/13 05:35:28;;;;;;;9.45;4.43;;;2.50;75.30;;;;;;9179792;19;20605;-63
2022/02/13 05:38:33;;;;;;;11.45;4.80;;;2.50;75.30;;;;;;9174968;19;20015;-62
2022/02/13 05:41:38;;;;;;;14.63;5.00;;;2.50;75.40;;;;;;9173295;19;20011;-63
2022/02/13 05:44:45;;;;;;;12.20;4.43;;;2.50;75.30;;;;;;9177191;19;20014;-64
2022/02/13 05:47:50;;;;;;;11.75;6.07;;;2.50;75.30;;;;;;9178228;19;20346;-62
2022/02/13 05:50:56;;;;;;;9.68;4.72;;;2.50;75.30;;;;;;9178822;19;20015;-62
2022/02/13 05:54:01;;;;;;;12.98;5.18;;;2.50;75.30;;;;;;9172906;19;20022;-65
2022/02/13 05:57:07;;;;;;;13.40;5.07;;;2.50;75.30;;;;;;9176193;19;20014;-61
2022/02/13 06:00:16;;;;;;;13.20;4.55;;;2.50;75.40;;;;;;9174912;19;20009;-63
2022/02/13 06:03:23;;;;;;;9.75;4.65;;;2.50;75.40;;;;;;9176141;19;20010;-64
2022/02/13 06:06:28;;;;;;;12.98;4.57;;;2.50;75.40;;;;;;9176751;19;20014;-62
2022/02/13 06:09:33;;;;;;;7.97;4.22;;;2.40;75.30;;;;;;9172785;19;20023;-61
2022/02/13 06:12:38;;;;;;;12.75;4.93;;;2.50;75.50;;;;;;9174576;19;20011;-63
2022/02/13 06:15:46;;;;;;;11.52;5.07;;;2.40;75.40;;;;;;9174570;19;20018;-63
2022/02/13 06:18:51;;;;;;;10.98;4.90;;;2.40;75.40;;;;;;9171081;19;20018;-63
2022/02/13 06:21:56;;;;;;;10.93;4.75;;;2.40;75.40;;;;;;9174417;19;20349;-65
2022/02/13 06:25:01;;;;;;;7.47;3.95;;;2.40;75.40;;;;;;9174541;19;20109;-62
2022/02/13 06:28:07;;;;;;;8.93;4.65;;;2.40;75.40;;;;;;9174254;19;20015;-62
2022/02/13 06:31:15;;;;;;;8.40;4.00;;;2.40;75.40;;;;;;9176117;19;20026;-63
2022/02/13 06:34:20;;;;;;;11.18;4.40;;;2.40;76.00;;;;;;9175272;19;20024;-62
2022/02/13 06:37:25;;;;;;;8.70;4.45;;;2.40;75.40;;;;;;9173476;19;20026;-63
2022/02/13 06:40:30;;;;;;;8.43;4.25;;;2.40;75.40;;;;;;9172126;19;20056;-64
2022/02/13 06:43:35;;;;;;;8.55;4.03;;;2.40;75.50;;;;;;9172115;19;20057;-66
2022/02/13 06:46:43;;;;;;;8.05;4.80;;;2.40;75.50;;;;;;9173509;19;20042;-62
2022/02/13 06:49:48;;;;;;;7.53;4.28;;;2.40;75.50;;;;;;9173134;19;20022;-63
2022/02/13 06:52:53;;;;;;;10.55;4.93;;;2.30;76.10;;;;;;9169739;19;20487;-62
2022/02/13 06:55:58;;;;;;;12.38;4.65;;;2.30;75.40;;;;;;9178805;19;20109;-63
2022/02/13 06:59:03;;;;;;;10.82;4.50;;;2.30;75.40;;;;;;9178653;19;20503;-62
2022/02/13 07:02:12;;;;;;;14.95;4.30;;;2.30;75.40;;;;;;9181215;19;20340;-64
2022/02/13 07:05:19;;;;;;;7.90;4.30;;;2.30;75.40;;;;;;9182094;19;20023;-61
2022/02/13 07:08:24;;;;;;;9.30;4.35;;;2.30;75.50;;;;;;9179090;19;20786;-63
2022/02/13 07:11:29;;;;;;;6.72;4.00;;;2.30;75.50;;;;;;9178780;19;20026;-64
2022/02/13 07:14:34;;;;;;;7.15;4.22;;;2.30;75.50;;;;;;9179603;19;20457;-63
2022/02/13 07:17:42;;;;;;;11.80;4.93;;;2.20;75.50;;;;;;9176871;19;20843;-63
2022/02/13 07:20:47;;;;;;;9.10;3.92;;;2.30;75.60;;;;;;9177730;19;20018;-63
2022/02/13 07:23:52;;;;;;;10.30;4.65;;;2.20;75.50;;;;;;9180226;19;20090;-62
2022/02/13 07:26:57;;;;;;;6.53;4.18;;;2.20;75.60;;;;;;9179795;19;20488;-64
2022/02/13 07:30:02;;;;;;;14.05;4.45;;;2.20;75.50;;;;;;9179898;19;20033;-64
2022/02/13 07:33:10;;;;;;;9.48;3.95;;;2.20;75.50;;;;;;9181076;19;20777;-64
2022/02/13 07:36:14;;;;;;;6.93;4.20;;;2.20;75.50;;;;;;9181517;19;20010;-64
2022/02/13 07:39:19;;;;;;;8.38;3.95;;;2.20;75.60;;;;;;9177087;19;20360;-63
2022/02/13 07:42:25;;;;;;;10.18;4.68;;;2.30;75.70;;;;;;9177401;19;20034;-63
2022/02/13 07:45:30;;;;;;;12.30;5.35;;;2.30;75.70;;;;;;9178990;19;20015;-63
2022/02/13 07:48:37;;;;;;;9.43;5.03;;;2.30;75.70;;;;;;9180215;19;20445;-64
2022/02/13 07:51:43;;;;;;;11.15;4.45;;;2.30;75.70;;;;;;9178104;19;20018;-62
2022/02/13 07:54:49;;;;;;;8.32;3.42;;;2.40;75.80;;;;;;9177688;19;20034;-62
2022/02/13 07:57:55;;;;;;;9.55;4.05;;;2.40;75.80;;;;;;9179367;19;20055;-67
2022/02/13 08:01:00;;;;;;;11.10;4.25;;;2.40;75.80;;;;;;9178050;19;20018;-62
2022/02/13 08:04:07;;;;;;;6.90;4.07;;;2.50;75.80;;;;;;9178633;19;20015;-65
2022/02/13 08:07:12;;;;;;;9.82;4.57;;;2.50;75.80;;;;;;9177324;19;20014;-62
2022/02/13 08:10:18;;;;;;;9.45;3.85;;;2.50;75.80;;;;;;9176380;19;20018;-63
2022/02/13 08:13:23;;;;;;;9.40;4.10;;;2.70;75.90;;;;;;9177197;19;21612;-64
2022/02/13 08:16:28;;;;;;;10.77;3.78;;;2.70;75.80;;;;;;9181578;19;20014;-64
2022/02/13 08:19:36;;;;;;;10.73;4.60;;;2.70;75.80;;;;;;9176201;19;20021;-64
2022/02/13 08:22:42;;;;;;;8.77;3.92;;;2.80;75.90;;;;;;9178541;19;20460;-63
2022/02/13 08:25:48;;;;;;;9.68;3.72;;;2.90;75.90;;;;;;9177682;19;20102;-63
2022/02/13 08:28:53;;;;;;;7.72;3.70;;;3.00;76.00;;;;;;9177470;19;20017;-62
2022/02/13 08:31:58;;;;;;;9.18;4.35;;;3.00;75.80;;;;;;9179285;19;20018;-63
2022/02/13 08:35:06;;;;;;;8.35;3.97;;;3.10;75.90;;;;;;9178784;19;20014;-63
2022/02/13 08:38:11;;;;;;;5.90;3.88;;;3.20;75.90;;;;;;9171902;19;20370;-64
2022/02/13 08:41:16;;;;;;;9.70;3.97;;;3.30;75.90;;;;;;9175318;19;20019;-65
2022/02/13 08:44:21;;;;;;;8.95;3.63;;;3.40;75.90;;;;;;9176579;19;20007;-64
2022/02/13 08:47:26;;;;;;;5.70;3.47;;;3.50;75.90;;;;;;9176327;19;20026;-63
2022/02/13 08:50:34;;;;;;;9.55;4.28;;;3.60;75.90;;;;;;9175523;19;20022;-64
2022/02/13 08:53:39;;;;;;;11.57;4.18;;;3.70;75.80;;;;;;9165729;19;20018;-65
2022/02/13 08:56:44;;;;;;;7.68;3.88;;;3.80;75.80;;;;;;9169699;19;20018;-64
2022/02/13 08:59:49;;;;;;;8.43;3.88;;;3.90;75.80;;;;;;9170951;19;20014;-64
2022/02/13 09:02:54;;;;;;;7.80;3.97;;;4.10;75.80;;;;;;9171051;19;20026;-65
2022/02/13 09:06:02;;;;;;;8.68;3.67;;;4.20;75.80;;;;;;9168375;19;20031;-65
2022/02/13 09:09:09;;;;;;;8.38;4.55;;;4.30;75.70;;;;;;9168468;19;20018;-63
2022/02/13 09:12:15;;;;;;;10.20;4.70;;;4.40;76.30;;;;;;9171559;19;20025;-63
2022/02/13 09:15:20;;;;;;;4.47;3.40;;;4.50;75.60;;;;;;9171502;19;20019;-63
2022/02/13 09:18:25;;;;;;;6.97;3.85;;;4.60;75.60;;;;;;9170515;19;20011;-64
2022/02/13 09:21:33;;;;;;;7.60;3.67;;;4.80;75.60;;;;;;9172722;19;20416;-64
2022/02/13 09:24:38;;;;;;;11.82;5.25;;;4.90;75.50;;;;;;9172322;19;20042;-64
2022/02/13 09:27:43;;;;;;;8.50;4.00;;;5.00;75.40;;;;;;9169947;19;20014;-65
2022/02/13 09:30:50;;;;;;;7.78;4.47;;;5.10;75.40;;;;;;9173127;19;20018;-64
2022/02/13 09:34:00;;;;;;;9.48;4.40;;;5.20;75.30;;;;;;9173052;19;20041;-63
2022/02/13 09:37:07;;;;;;;9.15;4.00;;;5.30;75.20;;;;;;9171289;19;20018;-63
2022/02/13 09:40:14;;;;;;;8.27;4.03;;;5.30;75.10;;;;;;9171600;19;20018;-66
2022/02/13 09:43:20;;;;;;;7.68;4.32;;;5.40;75.10;;;;;;9171661;19;20483;-65
2022/02/13 09:46:26;;;;;;;7.70;3.90;;;5.50;75.10;;;;;;9171213;19;20018;-63
2022/02/13 09:49:31;;;;;;;7.93;4.45;;;5.50;75.00;;;;;;9174003;19;20018;-65
2022/02/13 09:52:39;;;;;;;13.82;4.10;;;5.60;75.00;;;;;;9167290;19;20018;-64
2022/02/13 09:55:45;;;;;;;7.47;3.85;;;5.70;75.00;;;;;;9169706;19;20018;-64
2022/02/13 09:58:50;;;;;;;7.85;4.20;;;5.80;75.00;;;;;;9168975;19;20480;-65
2022/02/13 10:01:56;;;;;;;9.02;3.70;;;5.80;74.90;;;;;;9171331;19;20017;-65
2022/02/13 10:05:01;;;;;;;8.82;3.65;;;5.90;75.00;;;;;;9169786;19;20022;-65
2022/02/13 10:08:08;;;;;;;8.48;4.35;;;6.00;74.90;;;;;;9167201;19;20042;-64
2022/02/13 10:11:15;;;;;;;7.80;4.15;;;6.10;74.90;;;;;;9167522;19;20718;-62
2022/02/13 10:14:30;;;;;;;;;;;6.10;74.80;;;;;;9169566;19;20484;-65
2022/02/13 10:17:35;;;;;;;5.78;3.42;;;6.20;74.90;;;;;;9165160;19;19923;-63
2022/02/13 10:20:42;;;;;;;9.05;3.75;;;6.30;74.90;;;;;;9170370;19;20030;-64
2022/02/13 10:23:49;;;;;;;5.85;3.78;;;6.30;74.90;;;;;;9170041;19;20471;-63
2022/02/13 10:27:07;;;;;;;7.38;4.28;;;6.40;74.80;;;;;;9168730;19;20026;-64
2022/02/13 10:30:12;;;;;;;5.97;3.55;;;6.50;74.80;;;;;;9175700;19;20019;-62
2022/02/13 10:33:19;;;;;;;8.68;4.10;;;6.50;74.80;;;;;;9177868;19;20022;-63
2022/02/13 10:36:24;;;;;;;10.05;3.83;;;6.60;74.80;;;;;;9179062;19;20026;-64
2022/02/13 10:39:32;;;;;;;5.75;3.47;;;6.70;74.80;;;;;;9180762;19;20022;-62
2022/02/13 10:42:36;;;;;;;9.27;3.72;;;6.70;74.80;;;;;;9174721;19;20025;-64
2022/02/13 10:45:42;;;;;;;6.78;3.55;;;6.80;74.80;;;;;;9177178;19;20015;-63
2022/02/13 10:48:48;;;;;;;6.90;3.40;;;6.90;74.80;;;;;;9175115;19;20030;-63
2022/02/13 10:51:53;;;;;;;7.07;3.67;;;7.00;74.80;;;;;;9177779;19;20021;-64
2022/02/13 10:55:02;;;;;;;10.10;4.35;;;7.20;74.70;;;;;;9176504;19;20033;-66
2022/02/13 10:58:07;;;;;;;6.82;3.75;;;7.30;74.70;;;;;;9175839;19;20014;-63
2022/02/13 11:01:15;;;;;;;9.77;4.13;;;7.40;74.60;;;;;;9177653;19;20349;-65
2022/02/13 11:04:21;;;;;;;6.20;4.00;;;7.50;74.50;;;;;;9174865;19;20019;-64
2022/02/13 11:07:26;;;;;;;6.95;3.55;;;7.60;74.50;;;;;;9177523;19;20014;-65
2022/02/13 11:10:39;;;;;;;5.82;3.58;;;7.70;74.30;;;;;;9173776;19;20091;-64
2022/02/13 11:13:47;;;;;;;8.15;3.45;;;7.90;74.10;;;;;;9175923;19;20019;-65
2022/02/13 11:16:52;;;;;;;9.80;4.28;;;8.00;74.00;;;;;;9169435;19;20018;-63
2022/02/13 11:20:00;;;;;;;7.18;3.55;;;8.00;74.00;;;;;;9174538;19;20022;-64
2022/02/13 11:23:21;;;;;;;7.53;4.00;;;8.10;73.80;;;;;;9173895;19;20018;-63
2022/02/13 11:26:43;;;;;;;7.07;3.50;;;8.10;73.60;;;;;;9177167;19;20037;-63
2022/02/13 11:29:54;;;;;;;7.30;3.45;;;8.20;73.60;;;;;;9174018;19;20010;-63
2022/02/13 11:32:59;;;;;;;12.95;4.00;;;8.30;73.70;;;;;;9174639;19;20025;-63
2022/02/13 11:36:07;;;;;;;7.90;3.70;;;8.30;73.60;;;;;;9176276;19;20015;-64
2022/02/13 11:39:13;;;;;;;5.50;3.05;;;8.40;73.60;;;;;;9175815;19;20026;-65
2022/02/13 11:42:21;;;;;;;9.27;3.60;;;8.50;73.60;;;;;;9177127;19;20591;-64
2022/02/13 11:45:26;;;;;;;5.65;3.15;;;8.50;73.40;;;;;;9173868;19;20030;-64
2022/02/13 11:48:43;;;;;;;8.48;3.78;;;8.60;73.50;;;;;;9174496;19;20097;-64
2022/02/13 11:52:00;;;;;;;4.93;3.25;;;8.70;73.20;;;;;;9173280;19;20014;-64
2022/02/13 11:55:06;;;;;;;8.27;3.92;;;8.70;73.20;;;;;;9173673;19;20021;-64
2022/02/13 11:58:16;;;;;;;6.60;3.42;;;8.80;73.30;;;;;;9175631;19;20022;-64
2022/02/13 12:01:48;;;;;;;12.68;3.78;;;8.80;73.10;;;;;;9172631;19;20025;-64
2022/02/13 12:05:16;;;;;;;6.38;3.72;;;8.90;73.00;;;;;;9166573;19;20681;-64
2022/02/13 12:08:25;;;;;;;8.13;4.45;;;9.00;72.80;;;;;;9170331;19;20019;-64
2022/02/13 12:11:36;;;;;;;7.82;4.05;;;9.00;73.00;;;;;;9167494;19;20018;-62
2022/02/13 12:14:44;;;;;;;6.38;3.67;;;9.00;72.90;;;;;;9171740;19;20018;-64
2022/02/13 12:17:50;;;;;;;7.80;4.22;;;9.10;72.90;;;;;;9167151;19;20022;-63
2022/02/13 12:20:59;;;;;;;8.88;4.00;;;9.10;72.90;;;;;;9173883;19;20015;-64
2022/02/13 12:24:07;;;;;;;8.60;4.28;;;9.10;72.80;;;;;;9170486;19;20034;-64
2022/02/13 12:27:12;;;;;;;7.35;4.03;;;9.10;72.90;;;;;;9169373;19;20090;-63
2022/02/13 12:30:20;;;;;;;7.85;3.83;;;9.20;72.90;;;;;;9173802;19;20468;-63
2022/02/13 12:33:27;;;;;;;8.23;4.13;;;9.20;72.70;;;;;;9175188;19;20066;-63
2022/02/13 12:36:32;;;;;;;8.73;4.07;;;9.20;72.70;;;;;;9171975;19;20553;-64
2022/02/13 12:39:37;;;;;;;9.15;4.10;;;9.30;72.80;;;;;;9166085;19;20023;-64
2022/02/13 12:42:43;;;;;;;8.45;4.07;;;9.30;72.80;;;;;;9171287;19;20021;-64
2022/02/13 12:45:51;;;;;;;7.47;4.00;;;9.30;72.70;;;;;;9173570;19;20018;-62
2022/02/13 12:48:57;;;;;;;7.82;3.90;;;9.30;72.60;;;;;;9173797;19;20021;-63
2022/02/13 12:52:04;;;;;;;10.18;4.88;;;9.30;72.60;;;;;;9168085;19;20025;-65
2022/02/13 12:55:12;;;;;;;6.45;3.78;;;9.30;72.50;;;;;;9171592;19;20052;-64
2022/02/13 12:58:17;;;;;;;7.10;3.78;;;9.30;72.50;;;;;;9170283;19;20014;-64
2022/02/13 13:01:37;;;;;;;10.18;4.18;;;9.30;72.60;;;;;;9172786;19;20482;-63
2022/02/13 13:04:42;;;;;;;10.77;4.57;;;9.30;72.40;;;;;;9173057;19;20042;-64
2022/02/13 13:07:48;;;;;;;7.68;4.38;;;9.40;72.60;;;;;;9169823;19;20026;-63
2022/02/13 13:10:58;;;;;;;5.95;3.97;;;9.40;72.60;;;;;;9170586;19;20407;-64
2022/02/13 13:14:09;;;;;;;8.23;4.00;;;9.40;72.60;;;;;;9169314;19;20014;-65
2022/02/13 13:17:16;;;;;;;8.07;4.30;;;9.40;72.60;;;;;;9166975;19;20018;-63
2022/02/13 13:20:23;;;;;;;9.15;4.68;;;9.40;72.60;;;;;;9172843;19;20018;-65
2022/02/13 13:23:28;;;;;;;8.40;4.30;;;9.40;72.60;;;;;;9172394;19;20025;-64
2022/02/13 13:26:35;;;;;;;8.02;4.35;;;9.40;72.60;;;;;;9169462;19;20407;-62
2022/02/13 13:29:43;;;;;;;8.52;4.82;;;9.40;72.60;;;;;;9176357;19;20021;-63
2022/02/13 13:32:51;;;;;;;7.47;4.22;;;9.40;72.60;;;;;;9175644;19;20434;-63
2022/02/13 13:35:57;;;;;;;7.13;4.65;;;9.40;72.60;;;;;;9177561;19;20576;-64
2022/02/13 13:39:02;;;;;;;8.32;4.80;;;9.40;72.60;;;;;;9178908;19;20338;-64
2022/02/13 13:42:15;;;;;;;11.93;4.82;;;9.40;72.60;;;;;;9175161;19;20022;-64
2022/02/13 13:45:21;;;;;;;8.45;4.90;;;9.40;72.50;;;;;;9176606;19;20018;-63
2022/02/13 13:48:29;;;;;;;7.13;4.60;;;9.40;72.60;;;;;;9176444;19;20018;-64
2022/02/13 13:51:35;;;;;;;6.72;4.18;;;9.40;72.60;;;;;;9178501;19;20022;-63
2022/02/13 13:54:40;;;;;;;9.00;4.55;;;9.40;72.60;;;;;;9179545;19;20018;-62
2022/02/13 13:57:45;;;;;;;8.48;4.82;;;9.30;72.60;;;;;;9174529;19;20050;-63
2022/02/13 14:00:51;;;;;;;10.93;4.30;;;9.40;72.60;;;;;;9175161;19;20637;-64
2022/02/13 14:03:58;;;;;;;7.32;4.30;;;9.40;72.60;;;;;;9170567;19;20019;-64
2022/02/13 14:07:03;;;;;;;7.47;4.30;;;9.40;72.60;;;;;;9174873;19;20022;-62
2022/02/13 14:10:09;;;;;;;12.63;4.60;;;9.40;72.60;;;;;;9171954;19;20022;-64
2022/02/13 14:13:16;;;;;;;9.50;4.13;;;9.40;72.60;;;;;;9166925;19;20022;-63
2022/02/13 14:16:23;;;;;;;10.70;4.57;;;9.40;72.70;;;;;;9168976;19;20030;-64
2022/02/13 14:19:30;;;;;;;6.30;4.10;;;9.50;72.70;;;;;;9165238;19;20022;-65
2022/02/13 14:22:35;;;;;;;7.63;4.07;;;9.40;72.60;;;;;;9168975;19;20011;-66
2022/02/13 14:25:40;;;;;;;8.48;4.50;;;9.50;72.70;;;;;;9169067;19;20025;-64
2022/02/13 14:28:45;;;;;;;8.60;4.78;;;9.50;72.60;;;;;;9167988;19;20022;-63
2022/02/13 14:31:51;;;;;;;6.35;4.03;;;9.50;72.60;;;;;;9167302;19;20468;-62
2022/02/13 14:34:58;;;;;;;8.32;4.05;;;9.50;72.50;;;;;;9168984;19;20014;-64
2022/02/13 14:38:03;;;;;;;8.40;4.68;;;9.50;72.40;;;;;;9172185;19;20024;-63
2022/02/13 14:41:08;;;;;;;7.28;4.22;;;9.50;72.40;;;;;;9171304;19;20019;-63
2022/02/13 14:44:13;;;;;;;7.97;4.47;;;9.50;72.40;;;;;;9173448;19;20018;-62
2022/02/13 14:47:19;;;;;;;7.20;4.10;;;9.50;72.30;;;;;;9175157;19;20027;-63
2022/02/13 14:50:26;;;;;;;6.63;4.25;;;9.50;72.30;;;;;;9174810;19;20018;-63
2022/02/13 14:53:31;;;;;;;6.47;3.80;;;9.50;72.30;;;;;;9177913;19;20480;-63
2022/02/13 14:56:36;;;;;;;8.30;4.93;;;9.50;72.30;;;;;;9175846;19;20018;-62
2022/02/13 14:59:41;;;;;;;9.75;3.97;;;9.50;72.20;;;;;;9174095;19;20107;-62
2022/02/13 15:02:46;;;;;;;10.35;4.07;;;9.50;72.20;;;;;;9173750;19;20033;-62
2022/02/13 15:05:54;;;;;;;7.88;4.18;;;9.50;72.10;;;;;;9171876;19;20025;-64
2022/02/13 15:08:59;;;;;;;8.52;3.80;;;9.50;72.10;;;;;;9168554;19;20027;-63
2022/02/13 15:12:04;;;;;;;8.73;3.97;;;9.50;72.20;;;;;;9168584;19;20023;-63
2022/02/13 15:15:10;;;;;;;7.32;3.50;;;9.50;72.10;;;;;;9173543;19;20026;-63
2022/02/13 15:18:15;;;;;;;8.13;3.85;;;9.50;72.00;;;;;;9172018;19;20019;-64
2022/02/13 15:21:23;;;;;;;9.32;3.92;;;9.50;72.00;;;;;;9179361;19;20018;-65
2022/02/13 15:24:28;;;;;;;11.25;3.80;;;9.50;72.00;;;;;;9178000;19;20022;-63
2022/02/13 15:27:33;;;;;;;8.10;3.35;;;9.50;72.00;;;;;;9174608;19;20010;-63
2022/02/13 15:30:38;;;;;;;12.32;3.72;;;9.50;72.00;;;;;;9174957;19;20391;-62
2022/02/13 15:33:44;;;;;;;6.43;3.33;;;9.50;71.90;;;;;;9175775;19;20053;-64
2022/02/13 15:36:52;;;;;;;7.45;3.30;;;9.50;71.90;;;;;;9178933;19;20014;-64
2022/02/13 15:39:59;;;;;;;6.05;3.22;;;9.50;71.80;;;;;;9177785;19;20026;-64
2022/02/13 15:43:04;;;;;;;6.22;3.20;;;9.50;71.80;;;;;;9174524;19;20022;-62
2022/02/13 15:46:09;;;;;;;8.98;4.13;;;9.50;71.80;;;;;;9175261;19;20014;-63
2022/02/13 15:49:14;;;;;;;6.93;4.00;;;9.50;71.70;;;;;;9176815;19;20018;-63
2022/02/13 15:52:24;;;;;;;8.48;3.50;;;9.50;71.60;;;;;;9177540;19;20455;-62
2022/02/13 15:55:29;;;;;;;8.70;4.10;;;9.50;71.60;;;;;;9178935;19;20015;-63
2022/02/13 15:58:34;;;;;;;14.50;3.70;;;9.50;71.60;;;;;;9173108;19;20022;-63
2022/02/13 16:01:39;;;;;;;10.35;3.88;;;9.50;72.20;;;;;;9173611;19;20010;-62
2022/02/13 16:04:44;;;;;;;6.85;3.22;;;9.50;71.50;;;;;;9175020;19;20469;-64
2022/02/13 16:07:52;;;;;;;11.55;3.90;;;9.50;71.40;;;;;;9174486;19;20019;-64
2022/02/13 16:10:57;;;;;;;10.35;3.63;;;9.50;71.30;;;;;;9177996;19;20019;-63
2022/02/13 16:14:02;;;;;;;12.98;4.32;;;9.50;71.40;;;;;;9174632;19;20026;-62
2022/02/13 16:17:07;;;;;;;12.77;4.45;;;9.50;71.30;;;;;;9169296;19;20014;-63